Time,TemperatureF,DewpointF,PressureIn,WindDirection,WindDirectionDegrees,WindSpeedMPH,WindSpeedGustMPH,Humidity,HourlyPrecipIn,Conditions,Clouds,dailyrainin,SoftwareType,DateUTC
2013-04-02 00:00:00,53.1,41.2,29.53,North,0,0.0,0.0,64,0.00,,,0.00,WUHU21623XXSP,2013-04-02 04:00:00,
2013-04-02 00:05:00,52.9,41.4,29.53,North,0,0.0,0.0,65,0.00,,,0.00,WUHU21623XXSP,2013-04-02 04:05:00,
2013-04-02 00:10:00,52.9,41.8,29.53,North,0,0.0,0.0,66,0.00,,,0.00,WUHU21623XXSP,2013-04-02 04:10:00,
2013-04-02 00:15:00,52.9,41.8,29.53,North,0,0.0,0.0,66,0.00,,,0.00,WUHU21623XXSP,2013-04-02 04:15:00,
2013-04-02 00:20:00,53.2,42.1,29.53,North,0,0.0,0.0,66,0.00,,,0.00,WUHU21623XXSP,2013-04-02 04:20:00,
2013-04-02 00:25:00,53.4,41.9,29.53,North,0,0.0,0.0,65,0.00,,,0.00,WUHU21623XXSP,2013-04-02 04:25:00,
2013-04-02 00:30:00,54.0,42.0,29.53,North,0,0.0,0.0,64,0.00,,,0.00,WUHU21623XXSP,2013-04-02 04:30:00,
2013-04-02 00:35:00,54.3,42.4,29.54,North,0,0.0,0.0,64,0.00,,,0.00,WUHU21623XXSP,2013-04-02 04:35:00,
2013-04-02 00:40:00,54.5,42.5,29.54,North,0,0.0,0.0,64,0.00,,,0.00,WUHU21623XXSP,2013-04-02 04:40:00,
2013-04-02 00:45:00,54.3,42.4,29.54,North,0,0.0,0.0,64,0.00,,,0.00,WUHU21623XXSP,2013-04-02 04:45:00,
2013-04-02 00:50:00,54.1,42.2,29.54,North,0,0.0,0.0,64,0.00,,,0.00,WUHU21623XXSP,2013-04-02 04:50:00,
2013-04-02 00:55:00,54.1,42.2,29.54,North,0,0.0,0.0,64,0.00,,,0.00,WUHU21623XXSP,2013-04-02 04:55:00,
2013-04-02 01:00:00,54.1,42.2,29.54,North,0,0.0,0.0,64,0.00,,,0.00,WUHU21623XXSP,2013-04-02 05:00:00,
2013-04-02 01:05:00,54.1,42.2,29.54,North,0,0.0,0.0,64,0.00,,,0.00,WUHU21623XXSP,2013-04-02 05:05:00,
2013-04-02 01:10:00,54.3,42.2,29.55,North,0,0.0,0.0,64,0.00,,,0.00,WUHU21623XXSP,2013-04-02 05:10:00,
2013-04-02 01:15:00,54.3,42.4,29.55,North,0,0.0,0.0,64,0.00,,,0.00,WUHU21623XXSP,2013-04-02 05:15:00,
2013-04-02 01:20:00,54.1,42.2,29.55,North,0,0.0,0.0,64,0.00,,,0.00,WUHU21623XXSP,2013-04-02 05:20:00,
2013-04-02 01:25:00,54.1,42.2,29.55,North,0,0.0,0.0,64,0.00,,,0.00,WUHU21623XXSP,2013-04-02 05:25:00,
2013-04-02 01:30:00,54.3,42.4,29.55,North,0,0.0,0.0,64,0.00,,,0.00,WUHU21623XXSP,2013-04-02 05:30:00,
2013-04-02 01:35:00,54.1,42.2,29.55,North,0,0.0,0.0,64,0.00,,,0.00,WUHU21623XXSP,2013-04-02 05:35:00,
2013-04-02 01:40:00,53.8,41.8,29.55,North,0,0.0,0.0,64,0.00,,,0.00,WUHU21623XXSP,2013-04-02 05:40:00,
2013-04-02 01:45:00,53.4,41.9,29.55,North,0,0.0,0.0,65,0.00,,,0.00,WUHU21623XXSP,2013-04-02 05:45:00,
2013-04-02 01:50:00,53.1,42.0,29.55,North,0,0.0,0.0,66,0.00,,,0.00,WUHU21623XXSP,2013-04-02 05:50:00,
2013-04-02 01:55:00,52.5,41.5,29.55,North,0,0.0,0.0,66,0.00,,,0.00,WUHU21623XXSP,2013-04-02 05:55:00,
2013-04-02 02:01:00,52.3,41.7,29.55,North,0,0.0,0.0,67,0.00,,,0.00,WUHU21623XXSP,2013-04-02 06:01:00,
2013-04-02 02:06:00,52.0,41.8,29.55,North,0,0.0,0.0,68,0.00,,,0.00,WUHU21623XXSP,2013-04-02 06:06:00,
2013-04-02 02:11:00,51.4,41.3,29.56,North,0,0.0,0.0,68,0.00,,,0.00,WUHU21623XXSP,2013-04-02 06:11:00,
2013-04-02 02:16:00,51.3,41.5,29.56,North,0,0.0,0.0,69,0.00,,,0.00,WUHU21623XXSP,2013-04-02 06:16:00,
2013-04-02 02:21:00,50.9,41.1,29.55,North,0,0.0,0.0,69,0.00,,,0.00,WUHU21623XXSP,2013-04-02 06:21:00,
2013-04-02 02:26:00,50.7,41.4,29.56,North,0,0.0,0.0,70,0.00,,,0.00,WUHU21623XXSP,2013-04-02 06:26:00,
2013-04-02 02:31:00,50.5,41.5,29.56,North,0,0.0,0.0,71,0.00,,,0.00,WUHU21623XXSP,2013-04-02 06:31:00,
2013-04-02 02:36:00,50.2,41.2,29.56,North,0,0.0,0.0,71,0.00,,,0.00,WUHU21623XXSP,2013-04-02 06:36:00,
2013-04-02 02:41:00,50.2,41.2,29.56,North,0,0.0,0.0,71,0.00,,,0.00,WUHU21623XXSP,2013-04-02 06:41:00,
2013-04-02 02:46:00,49.8,40.8,29.56,North,0,0.0,0.0,71,0.00,,,0.00,WUHU21623XXSP,2013-04-02 06:46:00,
2013-04-02 02:52:00,49.6,41.0,29.56,North,0,0.0,0.0,72,0.00,,,0.00,WUHU21623XXSP,2013-04-02 06:52:00,
2013-04-02 02:57:00,49.5,40.8,29.56,North,0,0.0,0.0,72,0.00,,,0.00,WUHU21623XXSP,2013-04-02 06:57:00,
2013-04-02 03:02:00,49.3,40.6,29.56,North,0,0.0,0.0,72,0.00,,,0.00,WUHU21623XXSP,2013-04-02 07:02:00,
2013-04-02 03:07:00,49.3,40.9,29.56,North,0,0.0,0.0,73,0.00,,,0.00,WUHU21623XXSP,2013-04-02 07:07:00,
2013-04-02 03:12:00,49.1,40.8,29.56,North,0,0.0,0.0,73,0.00,,,0.00,WUHU21623XXSP,2013-04-02 07:12:00,
2013-04-02 03:17:00,48.9,40.6,29.56,North,0,0.0,0.0,73,0.00,,,0.00,WUHU21623XXSP,2013-04-02 07:17:00,
2013-04-02 03:22:00,48.7,40.4,29.56,North,0,0.0,0.0,73,0.00,,,0.00,WUHU21623XXSP,2013-04-02 07:22:00,
2013-04-02 03:27:00,48.7,40.7,29.56,North,0,0.0,0.0,74,0.00,,,0.00,WUHU21623XXSP,2013-04-02 07:27:00,
2013-04-02 03:32:00,48.6,40.9,29.56,North,0,0.0,0.0,75,0.00,,,0.00,WUHU21623XXSP,2013-04-02 07:32:00,
2013-04-02 03:37:00,48.6,40.9,29.56,North,0,0.0,0.0,75,0.00,,,0.00,WUHU21623XXSP,2013-04-02 07:37:00,
2013-04-02 03:42:00,48.6,40.9,29.56,North,0,0.0,0.0,75,0.00,,,0.00,WUHU21623XXSP,2013-04-02 07:42:00,
2013-04-02 03:47:00,48.4,40.7,29.57,North,0,0.0,0.0,75,0.00,,,0.00,WUHU21623XXSP,2013-04-02 07:47:00,
2013-04-02 03:52:00,48.2,40.5,29.57,North,0,0.0,0.0,75,0.00,,,0.00,WUHU21623XXSP,2013-04-02 07:52:00,
2013-04-02 03:57:00,48.0,40.4,29.57,North,0,0.0,0.0,75,0.00,,,0.00,WUHU21623XXSP,2013-04-02 07:57:00,
2013-04-02 04:02:00,48.0,40.7,29.57,North,0,0.0,0.0,76,0.00,,,0.00,WUHU21623XXSP,2013-04-02 08:02:00,
2013-04-02 04:07:00,47.8,40.6,29.57,North,0,0.0,0.0,76,0.00,,,0.00,WUHU21623XXSP,2013-04-02 08:07:00,
2013-04-02 04:12:00,47.7,40.4,29.57,North,0,0.0,0.0,76,0.00,,,0.00,WUHU21623XXSP,2013-04-02 08:12:00,
2013-04-02 04:17:00,47.5,40.2,29.57,North,0,0.0,0.0,76,0.00,,,0.00,WUHU21623XXSP,2013-04-02 08:17:00,
2013-04-02 04:22:00,47.5,40.2,29.57,North,0,0.0,0.0,76,0.00,,,0.00,WUHU21623XXSP,2013-04-02 08:22:00,
2013-04-02 04:27:00,47.3,40.1,29.57,North,0,0.0,0.0,76,0.00,,,0.00,WUHU21623XXSP,2013-04-02 08:27:00,
2013-04-02 04:32:00,47.1,40.3,29.58,North,0,0.0,0.0,77,0.00,,,0.00,WUHU21623XXSP,2013-04-02 08:32:00,
2013-04-02 04:37:00,47.1,40.3,29.58,North,0,0.0,0.0,77,0.00,,,0.00,WUHU21623XXSP,2013-04-02 08:37:00,
2013-04-02 04:42:00,47.1,40.3,29.58,North,0,0.0,0.0,77,0.00,,,0.00,WUHU21623XXSP,2013-04-02 08:42:00,
2013-04-02 04:47:00,47.1,40.6,29.58,North,0,0.0,0.0,78,0.00,,,0.00,WUHU21623XXSP,2013-04-02 08:47:00,
2013-04-02 04:53:00,47.1,40.3,29.58,North,0,0.0,0.0,77,0.00,,,0.00,WUHU21623XXSP,2013-04-02 08:53:00,
2013-04-02 04:58:00,47.3,40.4,29.58,North,0,0.0,0.0,77,0.00,,,0.00,WUHU21623XXSP,2013-04-02 08:58:00,
2013-04-02 05:03:00,47.1,40.3,29.58,North,0,0.0,0.0,77,0.00,,,0.00,WUHU21623XXSP,2013-04-02 09:03:00,
2013-04-02 05:08:00,47.1,40.3,29.58,North,0,0.0,0.0,77,0.00,,,0.00,WUHU21623XXSP,2013-04-02 09:08:00,
2013-04-02 05:13:00,46.9,40.1,29.58,North,0,0.0,0.0,77,0.00,,,0.00,WUHU21623XXSP,2013-04-02 09:13:00,
2013-04-02 05:18:00,46.9,40.4,29.59,North,0,0.0,0.0,78,0.00,,,0.00,WUHU21623XXSP,2013-04-02 09:18:00,
2013-04-02 05:23:00,46.9,40.4,29.59,North,0,0.0,0.0,78,0.00,,,0.00,WUHU21623XXSP,2013-04-02 09:23:00,
2013-04-02 05:28:00,46.9,40.4,29.59,North,0,0.0,0.0,78,0.00,,,0.00,WUHU21623XXSP,2013-04-02 09:28:00,
2013-04-02 05:33:00,46.8,40.3,29.59,North,0,0.0,0.0,78,0.00,,,0.00,WUHU21623XXSP,2013-04-02 09:33:00,
2013-04-02 05:38:00,46.4,40.0,29.59,North,0,0.0,0.0,78,0.00,,,0.00,WUHU21623XXSP,2013-04-02 09:38:00,
2013-04-02 05:43:00,46.2,39.8,29.60,North,0,0.0,0.0,78,0.00,,,0.00,WUHU21623XXSP,2013-04-02 09:43:00,
2013-04-02 05:48:00,46.2,39.8,29.59,North,0,0.0,0.0,78,0.00,,,0.00,WUHU21623XXSP,2013-04-02 09:48:00,
2013-04-02 05:53:00,46.0,39.6,29.60,North,0,0.0,0.0,78,0.00,,,0.00,WUHU21623XXSP,2013-04-02 09:53:00,
2013-04-02 05:58:00,45.9,39.4,29.60,North,0,0.0,0.0,78,0.00,,,0.00,WUHU21623XXSP,2013-04-02 09:58:00,
2013-04-02 06:03:00,45.7,39.6,29.60,North,0,0.0,0.0,79,0.00,,,0.00,WUHU21623XXSP,2013-04-02 10:03:00,
2013-04-02 06:09:00,45.3,39.2,29.60,North,0,0.0,0.0,79,0.00,,,0.00,WUHU21623XXSP,2013-04-02 10:09:00,
2013-04-02 06:14:00,45.3,39.2,29.61,North,0,0.0,0.0,79,0.00,,,0.00,WUHU21623XXSP,2013-04-02 10:14:00,
2013-04-02 06:19:00,45.3,39.2,29.61,North,0,0.0,0.0,79,0.00,,,0.00,WUHU21623XXSP,2013-04-02 10:19:00,
2013-04-02 06:24:00,45.1,39.0,29.60,North,0,0.0,0.0,79,0.00,,,0.00,WUHU21623XXSP,2013-04-02 10:24:00,
2013-04-02 06:29:00,45.1,39.0,29.61,North,0,0.0,0.0,79,0.00,,,0.00,WUHU21623XXSP,2013-04-02 10:29:00,
2013-04-02 06:34:00,45.1,39.0,29.61,North,0,0.0,0.0,79,0.00,,,0.00,WUHU21623XXSP,2013-04-02 10:34:00,
2013-04-02 06:39:00,45.3,39.9,29.61,North,0,0.0,0.0,81,0.00,,,0.00,WUHU21623XXSP,2013-04-02 10:39:00,
2013-04-02 06:44:00,45.3,39.9,29.61,North,0,0.0,0.0,81,0.00,,,0.00,WUHU21623XXSP,2013-04-02 10:44:00,
2013-04-02 06:49:00,45.3,39.9,29.62,North,0,0.0,0.0,81,0.00,,,0.00,WUHU21623XXSP,2013-04-02 10:49:00,
2013-04-02 06:54:00,45.5,40.0,29.62,North,0,0.0,0.0,81,0.00,,,0.00,WUHU21623XXSP,2013-04-02 10:54:00,
2013-04-02 06:59:00,45.5,40.0,29.62,North,0,0.0,0.0,81,0.00,,,0.00,WUHU21623XXSP,2013-04-02 10:59:00,
2013-04-02 07:04:00,45.5,40.0,29.62,North,0,0.0,0.0,81,0.00,,,0.00,WUHU21623XXSP,2013-04-02 11:04:00,
2013-04-02 07:09:00,45.3,39.9,29.63,North,0,0.0,0.0,81,0.00,,,0.00,WUHU21623XXSP,2013-04-02 11:09:00,
2013-04-02 07:14:00,45.3,39.9,29.63,North,0,0.0,0.0,81,0.00,,,0.00,WUHU21623XXSP,2013-04-02 11:14:00,
2013-04-02 07:19:00,45.3,39.9,29.63,North,0,0.0,0.0,81,0.00,,,0.00,WUHU21623XXSP,2013-04-02 11:19:00,
2013-04-02 07:24:00,45.3,40.2,29.64,North,0,0.0,0.0,82,0.00,,,0.00,WUHU21623XXSP,2013-04-02 11:24:00,
2013-04-02 07:29:00,45.5,40.0,29.64,North,0,0.0,0.0,81,0.00,,,0.00,WUHU21623XXSP,2013-04-02 11:29:00,
2013-04-02 07:34:00,46.0,40.6,29.64,North,0,0.0,0.0,81,0.00,,,0.00,WUHU21623XXSP,2013-04-02 11:34:00,
2013-04-02 07:39:00,47.1,41.3,29.65,North,0,0.0,0.0,80,0.00,,,0.00,WUHU21623XXSP,2013-04-02 11:39:00,
2013-04-02 07:44:00,47.7,41.8,29.65,North,0,0.0,0.0,80,0.00,,,0.00,WUHU21623XXSP,2013-04-02 11:44:00,
2013-04-02 07:49:00,48.4,42.1,29.65,North,0,0.0,0.0,79,0.00,,,0.00,WUHU21623XXSP,2013-04-02 11:49:00,
2013-04-02 07:54:00,49.3,42.7,29.66,North,0,0.0,0.0,78,0.00,,,0.00,WUHU21623XXSP,2013-04-02 11:54:00,
2013-04-02 07:59:00,50.4,43.4,29.66,North,0,0.0,0.0,77,0.00,,,0.00,WUHU21623XXSP,2013-04-02 11:59:00,
2013-04-02 08:04:00,51.6,44.0,29.66,North,0,0.0,0.0,75,0.00,,,0.00,WUHU21623XXSP,2013-04-02 12:04:00,
2013-04-02 08:09:00,53.8,45.3,29.66,North,0,0.0,0.0,73,0.00,,,0.00,WUHU21623XXSP,2013-04-02 12:09:00,
2013-04-02 08:14:00,55.0,45.5,29.66,North,0,0.0,0.0,70,0.00,,,0.00,WUHU21623XXSP,2013-04-02 12:14:00,
2013-04-02 08:19:00,56.3,45.4,29.66,North,0,0.0,0.0,67,0.00,,,0.00,WUHU21623XXSP,2013-04-02 12:19:00,
2013-04-02 08:24:00,57.4,45.7,29.67,North,0,0.0,0.0,65,0.00,,,0.00,WUHU21623XXSP,2013-04-02 12:24:00,
2013-04-02 08:29:00,57.9,45.8,29.67,North,0,0.0,0.0,64,0.00,,,0.00,WUHU21623XXSP,2013-04-02 12:29:00,
2013-04-02 08:34:00,58.3,45.3,29.67,North,0,0.0,0.0,62,0.00,,,0.00,WUHU21623XXSP,2013-04-02 12:34:00,
2013-04-02 08:39:00,58.8,45.8,29.68,North,0,0.0,0.0,62,0.00,,,0.00,WUHU21623XXSP,2013-04-02 12:39:00,
2013-04-02 08:44:00,60.1,46.6,29.67,North,0,0.0,0.0,61,0.00,,,0.00,WUHU21623XXSP,2013-04-02 12:44:00,
2013-04-02 08:50:00,61.3,46.6,29.68,North,0,0.0,0.0,58,0.00,,,0.00,WUHU21623XXSP,2013-04-02 12:50:00,
2013-04-02 08:54:00,61.9,46.5,29.67,North,0,0.0,0.0,57,0.00,,,0.00,WUHU21623XXSP,2013-04-02 12:54:00,
2013-04-02 08:59:00,62.8,45.8,29.68,NNE,22,0.0,0.0,54,0.00,,,0.00,WUHU21623XXSP,2013-04-02 12:59:00,
2013-04-02 09:04:00,63.0,46.0,29.68,NNE,22,0.0,0.0,54,0.00,,,0.00,WUHU21623XXSP,2013-04-02 13:04:00,
2013-04-02 09:10:00,63.5,46.5,29.68,NNE,22,0.0,0.0,54,0.00,,,0.00,WUHU21623XXSP,2013-04-02 13:10:00,
2013-04-02 09:15:00,64.2,46.6,29.68,North,0,0.0,0.0,53,0.00,,,0.00,WUHU21623XXSP,2013-04-02 13:15:00,
2013-04-02 09:20:00,64.2,46.1,29.69,North,0,0.0,0.0,52,0.00,,,0.00,WUHU21623XXSP,2013-04-02 13:20:00,
2013-04-02 09:25:00,64.9,46.8,29.69,North,0,0.0,0.0,52,0.00,,,0.00,WUHU21623XXSP,2013-04-02 13:25:00,
2013-04-02 09:30:00,65.5,46.9,29.69,NE,45,0.0,0.0,51,0.00,,,0.00,WUHU21623XXSP,2013-04-02 13:30:00,
2013-04-02 09:35:00,66.0,46.9,29.68,NE,45,0.0,0.0,50,0.00,,,0.00,WUHU21623XXSP,2013-04-02 13:35:00,
2013-04-02 09:40:00,66.6,46.9,29.68,NE,45,0.0,0.0,49,0.00,,,0.00,WUHU21623XXSP,2013-04-02 13:40:00,
2013-04-02 09:45:00,66.9,46.6,29.68,NE,45,0.0,0.0,48,0.00,,,0.00,WUHU21623XXSP,2013-04-02 13:45:00,
2013-04-02 09:50:00,66.4,46.1,29.69,NE,45,0.0,0.0,48,0.00,,,0.00,WUHU21623XXSP,2013-04-02 13:50:00,
2013-04-02 09:55:00,65.8,45.0,29.68,NNE,22,0.0,0.0,47,0.00,,,0.00,WUHU21623XXSP,2013-04-02 13:55:00,
2013-04-02 10:00:00,65.7,45.4,29.69,NE,45,0.0,0.0,48,0.00,,,0.00,WUHU21623XXSP,2013-04-02 14:00:00,
2013-04-02 10:05:00,66.0,45.2,29.68,NE,45,0.0,0.0,47,0.00,,,0.00,WUHU21623XXSP,2013-04-02 14:05:00,
2013-04-02 10:10:00,66.6,45.7,29.68,NE,45,0.0,0.0,47,0.00,,,0.00,WUHU21623XXSP,2013-04-02 14:10:00,
2013-04-02 10:15:00,67.6,46.6,29.68,NNE,22,0.0,0.0,47,0.00,,,0.00,WUHU21623XXSP,2013-04-02 14:15:00,
2013-04-02 10:20:00,68.2,45.9,29.68,NE,45,0.0,0.0,45,0.00,,,0.00,WUHU21623XXSP,2013-04-02 14:20:00,
2013-04-02 10:25:00,68.9,46.6,29.68,NE,45,0.0,0.0,45,0.00,,,0.00,WUHU21623XXSP,2013-04-02 14:25:00,
2013-04-02 10:30:00,69.6,46.6,29.68,NE,45,0.0,0.0,44,0.00,,,0.00,WUHU21623XXSP,2013-04-02 14:30:00,
2013-04-02 10:35:00,69.4,45.3,29.68,NE,45,0.0,0.0,42,0.00,,,0.00,WUHU21623XXSP,2013-04-02 14:35:00,
2013-04-02 10:40:00,69.1,45.0,29.68,NNE,22,0.0,0.0,42,0.00,,,0.00,WUHU21623XXSP,2013-04-02 14:40:00,
2013-04-02 10:45:00,68.7,44.0,29.68,NE,45,0.0,0.0,41,0.00,,,0.00,WUHU21623XXSP,2013-04-02 14:45:00,
2013-04-02 10:50:00,68.7,44.0,29.68,NE,45,0.0,2.0,41,0.00,,,0.00,WUHU21623XXSP,2013-04-02 14:50:00,
2013-04-02 10:55:00,69.1,44.4,29.68,NNE,22,0.0,2.0,41,0.00,,,0.00,WUHU21623XXSP,2013-04-02 14:55:00,
2013-04-02 11:00:00,69.8,43.7,29.68,North,0,0.0,1.6,39,0.00,,,0.00,WUHU21623XXSP,2013-04-02 15:00:00,
2013-04-02 11:05:00,70.0,43.8,29.68,North,0,0.0,1.1,39,0.00,,,0.00,WUHU21623XXSP,2013-04-02 15:05:00,
2013-04-02 11:10:00,70.9,44.7,29.68,North,0,0.0,1.1,39,0.00,,,0.00,WUHU21623XXSP,2013-04-02 15:10:00,
2013-04-02 11:15:00,72.0,44.9,29.68,NE,45,0.0,0.0,38,0.00,,,0.00,WUHU21623XXSP,2013-04-02 15:15:00,
2013-04-02 11:20:00,71.8,44.0,29.69,North,0,0.0,2.5,37,0.00,,,0.00,WUHU21623XXSP,2013-04-02 15:20:00,
2013-04-02 11:25:00,72.3,44.4,29.69,NNE,22,0.0,2.5,37,0.00,,,0.00,WUHU21623XXSP,2013-04-02 15:25:00,
2013-04-02 11:30:00,72.3,43.7,29.68,NE,45,0.0,0.7,36,0.00,,,0.00,WUHU21623XXSP,2013-04-02 15:30:00,
2013-04-02 11:35:00,73.0,43.6,29.69,NE,45,0.0,0.0,35,0.00,,,0.00,WUHU21623XXSP,2013-04-02 15:35:00,
2013-04-02 11:40:00,73.4,43.1,29.69,NE,45,0.0,0.0,34,0.00,,,0.00,WUHU21623XXSP,2013-04-02 15:40:00,
2013-04-02 11:45:00,73.9,43.6,29.68,ESE,112,0.0,5.8,34,0.00,,,0.00,WUHU21623XXSP,2013-04-02 15:45:00,
2013-04-02 11:50:00,74.8,43.7,29.68,NE,45,0.0,5.8,33,0.00,,,0.00,WUHU21623XXSP,2013-04-02 15:50:00,
2013-04-02 11:55:00,73.0,42.1,29.68,ESE,112,0.0,3.4,33,0.00,,,0.00,WUHU21623XXSP,2013-04-02 15:55:00,
2013-04-02 12:01:00,73.2,42.2,29.68,NE,45,0.0,0.0,33,0.00,,,0.00,WUHU21623XXSP,2013-04-02 16:01:00,
2013-04-02 12:06:00,74.1,42.3,29.68,NNE,22,0.0,0.0,32,0.00,,,0.00,WUHU21623XXSP,2013-04-02 16:06:00,
2013-04-02 12:11:00,74.8,42.9,29.68,NNE,22,0.0,0.0,32,0.00,,,0.00,WUHU21623XXSP,2013-04-02 16:11:00,
2013-04-02 12:16:00,76.1,44.0,29.67,NE,45,0.0,1.3,32,0.00,,,0.00,WUHU21623XXSP,2013-04-02 16:16:00,
2013-04-02 12:21:00,77.0,44.1,29.68,NE,45,0.0,1.3,31,0.00,,,0.00,WUHU21623XXSP,2013-04-02 16:21:00,
2013-04-02 12:26:00,77.7,43.9,29.68,North,0,0.0,0.0,30,0.00,,,0.00,WUHU21623XXSP,2013-04-02 16:26:00,
2013-04-02 12:31:00,78.4,45.2,29.67,SW,225,0.0,0.0,31,0.00,,,0.00,WUHU21623XXSP,2013-04-02 16:31:00,
2013-04-02 12:36:00,79.3,45.3,29.67,SW,225,0.0,0.0,30,0.00,,,0.00,WUHU21623XXSP,2013-04-02 16:36:00,
2013-04-02 12:41:00,79.5,43.3,29.67,NNE,22,0.0,5.1,28,0.00,,,0.00,WUHU21623XXSP,2013-04-02 16:41:00,
2013-04-02 12:46:00,79.9,43.7,29.67,NNE,22,0.0,5.1,28,0.00,,,0.00,WUHU21623XXSP,2013-04-02 16:46:00,
2013-04-02 12:51:00,81.1,43.7,29.67,North,0,0.0,1.8,27,0.00,,,0.00,WUHU21623XXSP,2013-04-02 16:51:00,
2013-04-02 12:56:00,81.7,44.1,29.66,North,0,0.0,1.8,27,0.00,,,0.00,WUHU21623XXSP,2013-04-02 16:56:00,
2013-04-02 13:01:00,82.6,44.9,29.65,North,0,0.0,0.0,27,0.00,,,0.00,WUHU21623XXSP,2013-04-02 17:01:00,
2013-04-02 13:06:00,83.1,44.3,29.65,ENE,67,0.0,0.0,26,0.00,,,0.00,WUHU21623XXSP,2013-04-02 17:06:00,
2013-04-02 13:11:00,83.8,44.9,29.65,ENE,67,0.0,0.0,26,0.00,,,0.00,WUHU21623XXSP,2013-04-02 17:11:00,
2013-04-02 13:16:00,83.1,43.2,29.65,North,0,2.5,2.5,25,0.00,,,0.00,WUHU21623XXSP,2013-04-02 17:16:00,
2013-04-02 13:21:00,82.6,43.8,29.65,NNW,337,0.0,2.5,26,0.00,,,0.00,WUHU21623XXSP,2013-04-02 17:21:00,
2013-04-02 13:26:00,83.8,43.8,29.65,NNE,22,0.0,2.5,25,0.00,,,0.00,WUHU21623XXSP,2013-04-02 17:26:00,
2013-04-02 13:31:00,85.1,44.9,29.64,NNE,22,0.0,0.0,25,0.00,,,0.00,WUHU21623XXSP,2013-04-02 17:31:00,
2013-04-02 13:36:00,84.9,42.6,29.64,NW,315,1.6,5.4,23,0.00,,,0.00,WUHU21623XXSP,2013-04-02 17:36:00,
2013-04-02 13:41:00,84.9,44.8,29.64,North,0,0.0,5.4,25,0.00,,,0.00,WUHU21623XXSP,2013-04-02 17:41:00,
2013-04-02 13:46:00,86.0,45.7,29.63,WSW,247,0.0,0.0,25,0.00,,,0.00,WUHU21623XXSP,2013-04-02 17:46:00,
2013-04-02 13:51:00,86.4,44.9,29.63,NE,45,0.0,0.0,24,0.00,,,0.00,WUHU21623XXSP,2013-04-02 17:51:00,
2013-04-02 13:57:00,86.7,43.1,29.63,NNW,337,3.8,5.4,22,0.00,,,0.00,WUHU21623XXSP,2013-04-02 17:57:00,
2013-04-02 14:02:00,85.6,43.2,29.63,North,0,0.0,5.6,23,0.00,,,0.00,WUHU21623XXSP,2013-04-02 18:02:00,
2013-04-02 14:07:00,86.7,44.1,29.63,North,0,0.0,5.6,23,0.00,,,0.00,WUHU21623XXSP,2013-04-02 18:07:00,
2013-04-02 14:12:00,87.1,44.5,29.63,NNE,22,0.0,5.4,23,0.00,,,0.00,WUHU21623XXSP,2013-04-02 18:12:00,
2013-04-02 14:17:00,86.7,44.1,29.62,NE,45,1.6,5.4,23,0.00,,,0.00,WUHU21623XXSP,2013-04-02 18:17:00,
2013-04-02 14:22:00,86.4,43.8,29.62,NW,315,0.0,7.6,23,0.00,,,0.00,WUHU21623XXSP,2013-04-02 18:22:00,
2013-04-02 14:27:00,84.9,42.6,29.62,North,0,0.0,7.6,23,0.00,,,0.00,WUHU21623XXSP,2013-04-02 18:27:00,
2013-04-02 14:32:00,84.6,43.4,29.61,ESE,112,0.0,5.4,24,0.00,,,0.00,WUHU21623XXSP,2013-04-02 18:32:00,
2013-04-02 14:37:00,83.8,43.8,29.61,NE,45,0.0,3.8,25,0.00,,,0.00,WUHU21623XXSP,2013-04-02 18:37:00,
2013-04-02 14:42:00,83.1,43.2,29.61,NNW,337,0.0,0.9,25,0.00,,,0.00,WUHU21623XXSP,2013-04-02 18:42:00,
2013-04-02 14:47:00,85.3,45.1,29.61,WSW,247,0.0,0.9,25,0.00,,,0.00,WUHU21623XXSP,2013-04-02 18:47:00,
2013-04-02 14:53:00,87.1,44.5,29.60,WSW,247,7.4,7.4,23,0.00,,,0.00,WUHU21623XXSP,2013-04-02 18:53:00,
2013-04-02 14:58:00,85.6,44.3,29.60,WSW,247,0.0,7.4,24,0.00,,,0.00,WUHU21623XXSP,2013-04-02 18:58:00,
2013-04-02 15:03:00,86.0,43.5,29.60,WSW,247,0.0,5.6,23,0.00,,,0.00,WUHU21623XXSP,2013-04-02 19:03:00,
2013-04-02 15:08:00,86.2,43.7,29.60,WSW,247,5.1,5.6,23,0.00,,,0.00,WUHU21623XXSP,2013-04-02 19:08:00,
2013-04-02 15:13:00,85.8,44.4,29.60,WSW,247,0.0,5.6,24,0.00,,,0.00,WUHU21623XXSP,2013-04-02 19:13:00,
2013-04-02 15:18:00,86.5,45.0,29.59,WSW,247,0.0,2.0,24,0.00,,,0.00,WUHU21623XXSP,2013-04-02 19:18:00,
2013-04-02 15:23:00,87.1,44.5,29.59,WSW,247,0.0,2.9,23,0.00,,,0.00,WUHU21623XXSP,2013-04-02 19:23:00,
2013-04-02 15:28:00,86.5,44.0,29.59,WSW,247,0.0,3.1,23,0.00,,,0.00,WUHU21623XXSP,2013-04-02 19:28:00,
2013-04-02 15:33:00,86.9,44.3,29.59,WSW,247,0.0,3.1,23,0.00,,,0.00,WUHU21623XXSP,2013-04-02 19:33:00,
2013-04-02 15:38:00,88.2,46.4,29.59,WSW,247,0.0,2.9,24,0.00,,,0.00,WUHU21623XXSP,2013-04-02 19:38:00,
2013-04-02 15:43:00,88.5,45.7,29.59,WSW,247,0.0,0.0,23,0.00,,,0.00,WUHU21623XXSP,2013-04-02 19:43:00,
2013-04-02 15:48:00,88.7,44.8,29.59,NNE,22,0.0,4.7,22,0.00,,,0.00,WUHU21623XXSP,2013-04-02 19:48:00,
2013-04-02 15:53:00,87.1,43.4,29.59,North,0,0.0,4.7,22,0.00,,,0.00,WUHU21623XXSP,2013-04-02 19:53:00,
2013-04-02 15:58:00,86.5,44.0,29.59,North,0,0.0,7.4,23,0.00,,,0.00,WUHU21623XXSP,2013-04-02 19:58:00,
2013-04-02 16:03:00,85.3,44.0,29.59,NNW,337,0.0,7.4,24,0.00,,,0.00,WUHU21623XXSP,2013-04-02 20:03:00,
2013-04-02 16:08:00,87.6,46.0,29.59,NE,45,0.0,4.7,24,0.00,,,0.00,WUHU21623XXSP,2013-04-02 20:08:00,
2013-04-02 16:13:00,87.4,44.8,29.58,South,180,0.0,7.6,23,0.00,,,0.00,WUHU21623XXSP,2013-04-02 20:13:00,
2013-04-02 16:18:00,88.0,46.3,29.58,WSW,247,0.0,7.6,24,0.00,,,0.00,WUHU21623XXSP,2013-04-02 20:18:00,
2013-04-02 16:23:00,87.1,44.5,29.58,NNW,337,0.0,0.0,23,0.00,,,0.00,WUHU21623XXSP,2013-04-02 20:23:00,
2013-04-02 16:28:00,84.7,44.6,29.58,WNW,292,0.0,0.0,25,0.00,,,0.00,WUHU21623XXSP,2013-04-02 20:28:00,
2013-04-02 16:33:00,79.5,42.3,29.58,NW,315,0.0,2.0,27,0.00,,,0.00,WUHU21623XXSP,2013-04-02 20:33:00,
2013-04-02 16:38:00,76.6,42.0,29.59,NW,315,0.0,2.0,29,0.00,,,0.00,WUHU21623XXSP,2013-04-02 20:38:00,
2013-04-02 16:43:00,74.8,41.4,29.58,NNE,22,0.0,2.0,30,0.00,,,0.00,WUHU21623XXSP,2013-04-02 20:43:00,
2013-04-02 16:48:00,74.1,42.3,29.58,NW,315,1.6,3.1,32,0.00,,,0.00,WUHU21623XXSP,2013-04-02 20:48:00,
2013-04-02 16:53:00,73.2,41.5,29.58,North,0,4.5,4.5,32,0.00,,,0.00,WUHU21623XXSP,2013-04-02 20:53:00,
2013-04-02 16:58:00,72.3,41.5,29.58,NNW,337,0.0,4.5,33,0.00,,,0.00,WUHU21623XXSP,2013-04-02 20:58:00,
2013-04-02 17:03:00,72.1,41.3,29.58,North,0,0.0,4.3,33,0.00,,,0.00,WUHU21623XXSP,2013-04-02 21:03:00,
2013-04-02 17:08:00,71.4,41.5,29.58,NNE,22,0.0,3.8,34,0.00,,,0.00,WUHU21623XXSP,2013-04-02 21:08:00,
2013-04-02 17:13:00,70.9,41.0,29.58,NNW,337,0.0,2.2,34,0.00,,,0.00,WUHU21623XXSP,2013-04-02 21:13:00,
2013-04-02 17:19:00,70.9,41.0,29.58,North,0,0.0,2.2,34,0.00,,,0.00,WUHU21623XXSP,2013-04-02 21:19:00,
2013-04-02 17:24:00,70.7,40.8,29.58,NW,315,0.0,3.4,34,0.00,,,0.00,WUHU21623XXSP,2013-04-02 21:24:00,
2013-04-02 17:29:00,70.5,40.6,29.58,North,0,0.0,3.4,34,0.00,,,0.00,WUHU21623XXSP,2013-04-02 21:29:00,
2013-04-02 17:34:00,70.2,41.1,29.58,North,0,0.0,2.2,35,0.00,,,0.00,WUHU21623XXSP,2013-04-02 21:34:00,
2013-04-02 17:39:00,70.0,40.9,29.58,North,0,0.0,0.0,35,0.00,,,0.00,WUHU21623XXSP,2013-04-02 21:39:00,
2013-04-02 17:44:00,70.3,41.2,29.58,North,0,0.0,0.0,35,0.00,,,0.00,WUHU21623XXSP,2013-04-02 21:44:00,
2013-04-02 17:49:00,70.3,41.2,29.58,NNE,22,0.0,0.0,35,0.00,,,0.00,WUHU21623XXSP,2013-04-02 21:49:00,
2013-04-02 17:55:00,69.8,40.7,29.58,NE,45,0.0,4.5,35,0.00,,,0.00,WUHU21623XXSP,2013-04-02 21:55:00,
2013-04-02 18:00:00,69.6,41.3,29.58,North,0,0.0,4.5,36,0.00,,,0.00,WUHU21623XXSP,2013-04-02 22:00:00,
2013-04-02 18:05:00,69.8,41.6,29.58,North,0,0.0,0.0,36,0.00,,,0.00,WUHU21623XXSP,2013-04-02 22:05:00,
2013-04-02 18:10:00,70.0,41.6,29.59,NNW,337,0.0,0.0,36,0.00,,,0.00,WUHU21623XXSP,2013-04-02 22:10:00,
2013-04-02 18:15:00,70.0,41.6,29.59,NNW,337,0.0,0.0,36,0.00,,,0.00,WUHU21623XXSP,2013-04-02 22:15:00,
2013-04-02 18:20:00,70.0,41.6,29.59,North,0,0.0,0.0,36,0.00,,,0.00,WUHU21623XXSP,2013-04-02 22:20:00,
2013-04-02 18:25:00,70.0,41.6,29.59,North,0,0.0,0.0,36,0.00,,,0.00,WUHU21623XXSP,2013-04-02 22:25:00,
2013-04-02 18:30:00,70.3,42.0,29.59,NNW,337,0.0,0.0,36,0.00,,,0.00,WUHU21623XXSP,2013-04-02 22:30:00,
2013-04-02 18:35:00,71.2,42.8,29.59,NNW,337,0.0,0.0,36,0.00,,,0.00,WUHU21623XXSP,2013-04-02 22:35:00,
2013-04-02 18:40:00,70.5,42.1,29.59,North,0,0.0,0.0,36,0.00,,,0.00,WUHU21623XXSP,2013-04-02 22:40:00,
2013-04-02 18:46:00,69.4,41.9,29.60,North,0,0.0,0.0,37,0.00,,,0.00,WUHU21623XXSP,2013-04-02 22:46:00,
2013-04-02 18:51:00,68.9,41.4,29.59,North,0,0.0,0.0,37,0.00,,,0.00,WUHU21623XXSP,2013-04-02 22:51:00,
2013-04-02 18:56:00,68.4,41.6,29.59,North,0,0.0,0.0,38,0.00,,,0.00,WUHU21623XXSP,2013-04-02 22:56:00,
2013-04-02 19:01:00,67.8,41.9,29.59,North,0,0.0,0.0,39,0.00,,,0.00,WUHU21623XXSP,2013-04-02 23:01:00,
2013-04-02 19:06:00,67.3,41.4,29.59,North,0,0.0,0.0,39,0.00,,,0.00,WUHU21623XXSP,2013-04-02 23:06:00,
2013-04-02 19:11:00,66.9,41.8,29.59,North,0,0.0,0.0,40,0.00,,,0.00,WUHU21623XXSP,2013-04-02 23:11:00,
2013-04-02 19:17:00,66.7,41.7,29.59,North,0,0.0,0.0,40,0.00,,,0.00,WUHU21623XXSP,2013-04-02 23:17:00,
2013-04-02 19:22:00,66.2,42.4,29.59,NNW,337,0.0,0.0,42,0.00,,,0.00,WUHU21623XXSP,2013-04-02 23:22:00,
2013-04-02 19:27:00,65.8,41.4,29.59,NNW,337,0.0,0.0,41,0.00,,,0.00,WUHU21623XXSP,2013-04-02 23:27:00,
2013-04-02 19:33:00,65.5,42.3,29.59,NNW,337,0.0,0.0,43,0.00,,,0.00,WUHU21623XXSP,2013-04-02 23:33:00,
2013-04-02 19:38:00,64.8,41.6,29.59,NNW,337,0.0,0.0,43,0.00,,,0.00,WUHU21623XXSP,2013-04-02 23:38:00,
2013-04-02 19:43:00,64.2,41.1,29.59,NNW,337,0.0,0.0,43,0.00,,,0.00,WUHU21623XXSP,2013-04-02 23:43:00,
2013-04-02 19:48:00,63.7,41.2,29.60,NNW,337,0.0,0.0,44,0.00,,,0.00,WUHU21623XXSP,2013-04-02 23:48:00,
2013-04-02 19:53:00,63.1,41.3,29.59,NNW,337,0.0,0.0,45,0.00,,,0.00,WUHU21623XXSP,2013-04-02 23:53:00,
2013-04-02 19:58:00,62.6,41.4,29.60,NNW,337,0.0,0.0,46,0.00,,,0.00,WUHU21623XXSP,2013-04-02 23:58:00,
2013-04-02 20:03:00,62.2,41.6,29.60,NNW,337,0.0,0.0,47,0.00,,,0.00,WUHU21623XXSP,2013-04-03 00:03:00,
2013-04-02 20:08:00,61.9,41.3,29.60,NNW,337,0.0,0.0,47,0.00,,,0.00,WUHU21623XXSP,2013-04-03 00:08:00,
2013-04-02 20:13:00,61.7,41.2,29.60,NNW,337,0.0,0.0,47,0.00,,,0.00,WUHU21623XXSP,2013-04-03 00:13:00,
2013-04-02 20:18:00,61.5,41.0,29.60,NNW,337,0.0,0.0,47,0.00,,,0.00,WUHU21623XXSP,2013-04-03 00:18:00,
2013-04-02 20:23:00,61.3,41.4,29.60,NNW,337,0.0,0.0,48,0.00,,,0.00,WUHU21623XXSP,2013-04-03 00:23:00,
2013-04-02 20:28:00,61.2,41.8,29.60,NNW,337,0.0,0.0,49,0.00,,,0.00,WUHU21623XXSP,2013-04-03 00:28:00,
2013-04-02 20:33:00,60.6,41.3,29.60,NNW,337,0.0,0.0,49,0.00,,,0.00,WUHU21623XXSP,2013-04-03 00:33:00,
2013-04-02 20:38:00,60.4,41.8,29.60,NNW,337,0.0,0.0,50,0.00,,,0.00,WUHU21623XXSP,2013-04-03 00:38:00,
2013-04-02 20:43:00,60.1,41.4,29.60,NNW,337,0.0,0.0,50,0.00,,,0.00,WUHU21623XXSP,2013-04-03 00:43:00,
2013-04-02 20:48:00,59.9,41.3,29.60,NNW,337,0.0,0.0,50,0.00,,,0.00,WUHU21623XXSP,2013-04-03 00:48:00,
2013-04-02 20:54:00,59.7,41.6,29.60,NNW,337,0.0,0.0,51,0.00,,,0.00,WUHU21623XXSP,2013-04-03 00:54:00,
2013-04-02 20:59:00,59.4,41.3,29.60,NNW,337,0.0,0.0,51,0.00,,,0.00,WUHU21623XXSP,2013-04-03 00:59:00,
2013-04-02 21:04:00,58.8,40.8,29.60,NNW,337,0.0,0.0,51,0.00,,,0.00,WUHU21623XXSP,2013-04-03 01:04:00,
2013-04-02 21:09:00,58.8,41.2,29.60,NNW,337,0.0,0.0,52,0.00,,,0.00,WUHU21623XXSP,2013-04-03 01:09:00,
2013-04-02 21:14:00,58.6,42.0,29.61,NNW,337,0.0,0.0,54,0.00,,,0.00,WUHU21623XXSP,2013-04-03 01:14:00,
2013-04-02 21:19:00,58.1,41.5,29.61,NNW,337,0.0,0.0,54,0.00,,,0.00,WUHU21623XXSP,2013-04-03 01:19:00,
2013-04-02 21:24:00,57.7,41.7,29.61,NNW,337,0.0,0.0,55,0.00,,,0.00,WUHU21623XXSP,2013-04-03 01:24:00,
2013-04-02 21:29:00,57.4,41.8,29.61,NNW,337,0.0,0.0,56,0.00,,,0.00,WUHU21623XXSP,2013-04-03 01:29:00,
2013-04-02 21:34:00,57.4,41.8,29.61,NNW,337,0.0,0.0,56,0.00,,,0.00,WUHU21623XXSP,2013-04-03 01:34:00,
2013-04-02 21:39:00,57.0,41.5,29.61,NNW,337,0.0,0.0,56,0.00,,,0.00,WUHU21623XXSP,2013-04-03 01:39:00,
2013-04-02 21:44:00,57.0,41.5,29.62,NNW,337,0.0,0.0,56,0.00,,,0.00,WUHU21623XXSP,2013-04-03 01:44:00,
2013-04-02 21:49:00,57.4,41.8,29.62,NNW,337,0.0,0.0,56,0.00,,,0.00,WUHU21623XXSP,2013-04-03 01:49:00,
2013-04-02 21:54:00,57.2,42.1,29.62,NNW,337,0.0,0.0,57,0.00,,,0.00,WUHU21623XXSP,2013-04-03 01:54:00,
2013-04-02 21:59:00,57.6,42.4,29.63,NNW,337,0.0,0.0,57,0.00,,,0.00,WUHU21623XXSP,2013-04-03 01:59:00,
2013-04-02 22:04:00,57.7,43.1,29.62,NNW,337,0.0,0.0,58,0.00,,,0.00,WUHU21623XXSP,2013-04-03 02:04:00,
2013-04-02 22:09:00,57.7,43.1,29.62,NNW,337,0.0,0.0,58,0.00,,,0.00,WUHU21623XXSP,2013-04-03 02:09:00,
2013-04-02 22:14:00,57.6,42.4,29.62,NNW,337,0.0,0.0,57,0.00,,,0.00,WUHU21623XXSP,2013-04-03 02:14:00,
2013-04-02 22:19:00,57.4,42.3,29.63,NNW,337,0.0,0.0,57,0.00,,,0.00,WUHU21623XXSP,2013-04-03 02:19:00,
2013-04-02 22:25:00,57.0,41.9,29.63,NNW,337,0.0,0.0,57,0.00,,,0.00,WUHU21623XXSP,2013-04-03 02:25:00,
2013-04-02 22:29:00,56.8,42.2,29.63,NNW,337,0.0,0.0,58,0.00,,,0.00,WUHU21623XXSP,2013-04-03 02:29:00,
2013-04-02 22:35:00,56.5,42.3,29.63,NNW,337,0.0,0.0,59,0.00,,,0.00,WUHU21623XXSP,2013-04-03 02:35:00,
2013-04-02 22:40:00,56.3,42.2,29.63,NNW,337,0.0,0.0,59,0.00,,,0.00,WUHU21623XXSP,2013-04-03 02:40:00,
2013-04-02 22:45:00,56.1,42.0,29.63,NNW,337,0.0,0.0,59,0.00,,,0.00,WUHU21623XXSP,2013-04-03 02:45:00,
2013-04-02 22:50:00,55.9,41.8,29.63,NNW,337,0.0,0.0,59,0.00,,,0.00,WUHU21623XXSP,2013-04-03 02:50:00,
2013-04-02 22:55:00,55.9,41.8,29.63,NNW,337,0.0,0.0,59,0.00,,,0.00,WUHU21623XXSP,2013-04-03 02:55:00,
2013-04-02 23:00:00,55.9,41.8,29.63,NNW,337,0.0,0.0,59,0.00,,,0.00,WUHU21623XXSP,2013-04-03 03:00:00,
2013-04-02 23:05:00,55.8,41.6,29.63,NNW,337,0.0,0.0,59,0.00,,,0.00,WUHU21623XXSP,2013-04-03 03:05:00,
2013-04-02 23:10:00,55.9,41.3,29.63,NNW,337,0.0,0.0,58,0.00,,,0.00,WUHU21623XXSP,2013-04-03 03:10:00,
2013-04-02 23:15:00,55.9,41.3,29.63,NNW,337,0.0,0.0,58,0.00,,,0.00,WUHU21623XXSP,2013-04-03 03:15:00,
2013-04-02 23:20:00,55.6,41.4,29.63,NNW,337,0.0,0.0,59,0.00,,,0.00,WUHU21623XXSP,2013-04-03 03:20:00,
2013-04-02 23:25:00,55.6,41.4,29.63,NNW,337,0.0,0.0,59,0.00,,,0.00,WUHU21623XXSP,2013-04-03 03:25:00,
2013-04-02 23:30:00,55.2,41.6,29.63,NNW,337,0.0,0.0,60,0.00,,,0.00,WUHU21623XXSP,2013-04-03 03:30:00,
2013-04-02 23:35:00,55.0,41.4,29.63,NNW,337,0.0,0.0,60,0.00,,,0.00,WUHU21623XXSP,2013-04-03 03:35:00,
2013-04-02 23:40:00,55.2,41.1,29.63,NNW,337,0.0,0.0,59,0.00,,,0.00,WUHU21623XXSP,2013-04-03 03:40:00,
2013-04-02 23:45:00,55.6,41.0,29.64,NNW,337,0.0,0.0,58,0.00,,,0.00,WUHU21623XXSP,2013-04-03 03:45:00,
2013-04-02 23:50:00,55.8,41.1,29.64,NNW,337,0.0,0.0,58,0.00,,,0.00,WUHU21623XXSP,2013-04-03 03:50:00,
2013-04-02 23:55:00,55.9,41.3,29.64,NNW,337,0.0,0.0,58,0.00,,,0.00,WUHU21623XXSP,2013-04-03 03:55:00,